Time,TemperatureF,DewpointF,PressureIn,WindDirection,WindDirectionDegrees,WindSpeedMPH,WindSpeedGustMPH,Humidity,HourlyPrecipIn,Conditions,Clouds,dailyrainin,SolarRadiationWatts/m^2,SoftwareType,DateUTC
2013-01-10 00:03:00,39.0,25.0,-100.00,West,279,12.0,25.0,56,0.00,,,0.00,0.000000,,2013-01-10 05:03:00,
2013-01-10 00:12:00,39.0,25.0,-100.00,West,279,12.0,25.0,56,0.00,,,0.00,0.000000,,2013-01-10 05:12:00,
2013-01-10 00:22:00,39.0,25.0,-100.00,West,279,12.0,25.0,56,0.00,,,0.00,0.000000,,2013-01-10 05:22:00,
2013-01-10 00:53:00,39.0,25.0,-100.00,West,275,10.0,23.0,58,0.00,,,0.00,0.000000,,2013-01-10 05:53:00,
2013-01-10 01:02:00,39.0,25.0,-100.00,West,275,10.0,23.0,58,0.00,,,0.00,0.000000,,2013-01-10 06:02:00,
2013-01-10 01:12:00,39.0,25.0,-100.00,West,275,10.0,23.0,58,0.00,,,0.00,0.000000,,2013-01-10 06:12:00,
2013-01-10 01:22:00,39.0,25.0,-100.00,West,275,10.0,23.0,58,0.00,,,0.00,0.000000,,2013-01-10 06:22:00,
2013-01-10 01:52:00,38.0,26.0,-100.00,WNW,285,9.0,17.0,61,0.00,,,0.00,0.000000,,2013-01-10 06:52:00,
2013-01-10 02:02:00,38.0,26.0,-100.00,WNW,285,9.0,17.0,61,0.00,,,0.00,0.000000,,2013-01-10 07:02:00,
2013-01-10 02:12:00,38.0,26.0,-100.00,WNW,285,9.0,17.0,61,0.00,,,0.00,0.000000,,2013-01-10 07:12:00,
2013-01-10 02:22:00,38.0,26.0,-100.00,WNW,285,9.0,17.0,61,0.00,,,0.00,0.000000,,2013-01-10 07:22:00,
2013-01-10 02:52:00,37.0,23.0,-100.00,WNW,297,7.0,14.0,57,0.00,,,0.00,0.000000,,2013-01-10 07:52:00,
2013-01-10 03:02:00,37.0,23.0,-100.00,WNW,297,7.0,14.0,57,0.00,,,0.00,0.000000,,2013-01-10 08:02:00,
2013-01-10 03:12:00,37.0,23.0,-100.00,WNW,297,7.0,14.0,57,0.00,,,0.00,0.000000,,2013-01-10 08:12:00,
2013-01-10 03:22:00,37.0,23.0,-100.00,WNW,297,7.0,14.0,57,0.00,,,0.00,0.000000,,2013-01-10 08:22:00,
2013-01-10 03:53:00,35.0,23.0,-100.00,West,270,6.0,13.0,61,0.00,,,0.00,0.000000,,2013-01-10 08:53:00,
2013-01-10 04:02:00,35.0,23.0,-100.00,West,270,6.0,13.0,61,0.00,,,0.00,0.000000,,2013-01-10 09:02:00,
2013-01-10 04:12:00,35.0,23.0,-100.00,West,270,6.0,13.0,61,0.00,,,0.00,0.000000,,2013-01-10 09:12:00,
2013-01-10 04:22:00,35.0,23.0,-100.00,West,270,6.0,13.0,61,0.00,,,0.00,0.000000,,2013-01-10 09:22:00,
2013-01-10 04:53:00,36.0,24.0,-100.00,West,270,7.0,10.0,62,0.00,,,0.00,0.000000,,2013-01-10 09:53:00,
2013-01-10 05:03:00,36.0,24.0,-100.00,West,270,7.0,10.0,62,0.00,,,0.00,0.000000,,2013-01-10 10:03:00,
2013-01-10 05:12:00,36.0,24.0,-100.00,West,270,7.0,10.0,62,0.00,,,0.00,0.000000,,2013-01-10 10:12:00,
2013-01-10 05:22:00,36.0,24.0,-100.00,West,270,7.0,10.0,62,0.00,,,0.00,0.000000,,2013-01-10 10:22:00,
2013-01-10 05:53:00,35.0,26.0,-100.00,SW,234,4.0,9.0,68,0.00,,,0.00,0.000000,,2013-01-10 10:53:00,
2013-01-10 06:03:00,35.0,26.0,-100.00,SW,234,4.0,9.0,68,0.00,,,0.00,0.000000,,2013-01-10 11:03:00,
2013-01-10 06:12:00,35.0,26.0,-100.00,SW,234,4.0,9.0,68,0.00,,,0.00,0.000000,,2013-01-10 11:12:00,
2013-01-10 06:22:00,35.0,26.0,-100.00,SW,234,4.0,9.0,68,0.00,,,0.00,0.000000,,2013-01-10 11:22:00,
2013-01-10 06:53:00,35.0,26.0,-100.00,WSW,247,4.0,8.0,70,0.00,,,0.00,0.000000,,2013-01-10 11:53:00,
2013-01-10 07:03:00,35.0,26.0,-100.00,WSW,247,4.0,8.0,70,0.00,,,0.00,0.000000,,2013-01-10 12:03:00,
2013-01-10 07:12:00,35.0,26.0,-100.00,WSW,247,4.0,8.0,70,0.00,,,0.00,0.000000,,2013-01-10 12:12:00,
2013-01-10 07:22:00,35.0,26.0,-100.00,WSW,247,4.0,8.0,70,0.00,,,0.00,0.000000,,2013-01-10 12:22:00,
2013-01-10 09:53:00,36.0,25.0,-100.00,West,270,5.0,9.0,65,-99.99,,,0.00,104.000000,,2013-01-10 14:53:00,
2013-01-10 10:03:00,36.0,25.0,-100.00,West,270,5.0,9.0,65,-99.99,,,0.00,104.000000,,2013-01-10 15:03:00,
2013-01-10 10:12:00,36.0,25.0,-100.00,West,270,5.0,9.0,65,-99.99,,,0.00,104.000000,,2013-01-10 15:12:00,
2013-01-10 10:23:00,36.0,25.0,-100.00,West,270,5.0,9.0,65,-99.99,,,0.00,104.000000,,2013-01-10 15:23:00,
2013-01-10 10:53:00,37.0,25.0,-100.00,West,269,6.0,10.0,61,0.00,,,0.00,176.000000,,2013-01-10 15:53:00,
2013-01-10 11:03:00,37.0,25.0,-100.00,West,269,6.0,10.0,61,0.00,,,0.00,176.000000,,2013-01-10 16:03:00,
2013-01-10 11:13:00,37.0,25.0,-100.00,West,269,6.0,10.0,61,0.00,,,0.00,176.000000,,2013-01-10 16:13:00,
2013-01-10 11:23:00,37.0,25.0,-100.00,West,269,6.0,10.0,61,0.00,,,0.00,176.000000,,2013-01-10 16:23:00,
2013-01-10 11:53:00,39.0,25.0,-100.00,West,271,5.0,10.0,56,0.00,,,0.00,36.000000,,2013-01-10 16:53:00,
2013-01-10 12:03:00,39.0,25.0,-100.00,West,271,5.0,10.0,56,0.00,,,0.00,36.000000,,2013-01-10 17:03:00,
2013-01-10 12:12:00,39.0,25.0,-100.00,West,271,5.0,10.0,56,0.00,,,0.00,36.000000,,2013-01-10 17:12:00,
2013-01-10 12:23:00,39.0,25.0,-100.00,West,271,5.0,10.0,56,0.00,,,0.00,36.000000,,2013-01-10 17:23:00,
2013-01-10 12:53:00,42.0,25.0,-100.00,NNW,343,4.0,8.0,50,0.00,,,0.00,196.000000,,2013-01-10 17:53:00,
2013-01-10 13:03:00,42.0,25.0,-100.00,NNW,343,4.0,8.0,50,0.00,,,0.00,196.000000,,2013-01-10 18:03:00,
2013-01-10 13:12:00,42.0,25.0,-100.00,NNW,343,4.0,8.0,50,0.00,,,0.00,196.000000,,2013-01-10 18:12:00,
2013-01-10 13:23:00,42.0,25.0,-100.00,NNW,343,4.0,8.0,50,0.00,,,0.00,196.000000,,2013-01-10 18:23:00,
2013-01-10 13:53:00,44.0,25.0,-100.00,WNW,286,4.0,9.0,47,0.00,,,0.00,393.000000,,2013-01-10 18:53:00,
2013-01-10 14:03:00,44.0,25.0,-100.00,WNW,286,4.0,9.0,47,0.00,,,0.00,393.000000,,2013-01-10 19:03:00,
2013-01-10 14:13:00,44.0,25.0,-100.00,WNW,286,4.0,9.0,47,0.00,,,0.00,393.000000,,2013-01-10 19:13:00,
2013-01-10 14:23:00,44.0,25.0,-100.00,WNW,286,4.0,9.0,47,0.00,,,0.00,393.000000,,2013-01-10 19:23:00,
2013-01-10 14:53:00,43.0,24.0,-100.00,SW,225,4.0,7.0,47,0.00,,,0.00,302.000000,,2013-01-10 19:53:00,
2013-01-10 15:03:00,43.0,24.0,-100.00,SW,225,4.0,7.0,47,0.00,,,0.00,302.000000,,2013-01-10 20:03:00,
2013-01-10 15:13:00,43.0,24.0,-100.00,SW,225,4.0,7.0,47,0.00,,,0.00,302.000000,,2013-01-10 20:13:00,
2013-01-10 15:24:00,43.0,24.0,-100.00,SW,225,4.0,7.0,47,0.00,,,0.00,302.000000,,2013-01-10 20:24:00,
2013-01-10 15:53:00,42.0,23.0,-100.00,WSW,238,5.0,8.0,47,0.00,,,0.00,214.000000,,2013-01-10 20:53:00,
2013-01-10 16:04:00,42.0,23.0,-100.00,WSW,238,5.0,8.0,47,0.00,,,0.00,214.000000,,2013-01-10 21:04:00,
2013-01-10 16:13:00,42.0,23.0,-100.00,WSW,238,5.0,8.0,47,0.00,,,0.00,214.000000,,2013-01-10 21:13:00,
2013-01-10 16:23:00,42.0,23.0,-100.00,WSW,238,5.0,8.0,47,0.00,,,0.00,214.000000,,2013-01-10 21:23:00,
2013-01-10 16:25:00,41.0,24.0,-100.00,South,183,1.0,6.0,51,0.00,,,0.00,104.000000,,2013-01-10 21:25:00,
2013-01-10 16:53:00,41.0,24.0,-100.00,South,183,1.0,6.0,51,0.00,,,0.00,104.000000,,2013-01-10 21:53:00,
2013-01-10 17:04:00,41.0,24.0,-100.00,South,183,1.0,6.0,51,0.00,,,0.00,104.000000,,2013-01-10 22:04:00,
2013-01-10 17:13:00,41.0,24.0,-100.00,South,183,1.0,6.0,51,0.00,,,0.00,104.000000,,2013-01-10 22:13:00,
2013-01-10 18:03:00,36.0,24.0,-100.00,South,171,0.0,2.0,61,0.00,,,0.00,9.000000,,2013-01-10 23:03:00,
2013-01-10 18:13:00,36.0,24.0,-100.00,South,171,0.0,2.0,61,0.00,,,0.00,9.000000,,2013-01-10 23:13:00,
2013-01-10 18:23:00,36.0,24.0,-100.00,South,171,0.0,2.0,61,0.00,,,0.00,9.000000,,2013-01-10 23:23:00,
2013-01-10 18:53:00,32.0,25.0,-100.00,NE,43,2.0,3.0,75,0.00,,,0.00,0.000000,,2013-01-10 23:53:00,
2013-01-10 19:03:00,32.0,25.0,-100.00,NE,43,2.0,3.0,75,0.00,,,0.00,0.000000,,2013-01-11 00:03:00,
2013-01-10 19:13:00,32.0,25.0,-100.00,NE,43,2.0,3.0,75,0.00,,,0.00,0.000000,,2013-01-11 00:13:00,
2013-01-10 19:23:00,32.0,25.0,-100.00,NE,43,2.0,3.0,75,0.00,,,0.00,0.000000,,2013-01-11 00:23:00,
2013-01-10 19:53:00,33.0,26.0,-100.00,ESE,121,4.0,5.0,74,0.00,,,0.00,0.000000,,2013-01-11 00:53:00,
2013-01-10 20:03:00,33.0,26.0,-100.00,ESE,121,4.0,5.0,74,0.00,,,0.00,0.000000,,2013-01-11 01:03:00,
2013-01-10 20:13:00,33.0,26.0,-100.00,ESE,121,4.0,5.0,74,0.00,,,0.00,0.000000,,2013-01-11 01:13:00,
2013-01-10 20:23:00,33.0,26.0,-100.00,ESE,121,4.0,5.0,74,0.00,,,0.00,0.000000,,2013-01-11 01:23:00,
2013-01-10 20:53:00,33.0,26.0,-100.00,ESE,115,3.0,5.0,76,0.00,,,0.00,0.000000,,2013-01-11 01:53:00,
2013-01-10 21:03:00,33.0,26.0,-100.00,ESE,115,3.0,5.0,76,0.00,,,0.00,0.000000,,2013-01-11 02:03:00,
2013-01-10 21:13:00,33.0,26.0,-100.00,ESE,115,3.0,5.0,76,0.00,,,0.00,0.000000,,2013-01-11 02:13:00,
2013-01-10 21:23:00,33.0,26.0,-100.00,ESE,115,3.0,5.0,76,0.00,,,0.00,0.000000,,2013-01-11 02:23:00,
2013-01-10 21:54:00,33.0,27.0,-100.00,ESE,109,5.0,8.0,78,0.00,,,0.00,0.000000,,2013-01-11 02:54:00,
2013-01-10 22:03:00,33.0,27.0,-100.00,ESE,109,5.0,8.0,78,0.00,,,0.00,0.000000,,2013-01-11 03:03:00,
2013-01-10 22:13:00,33.0,27.0,-100.00,ESE,109,5.0,8.0,78,0.00,,,0.00,0.000000,,2013-01-11 03:13:00,
2013-01-10 22:23:00,33.0,27.0,-100.00,ESE,109,5.0,8.0,78,0.00,,,0.00,0.000000,,2013-01-11 03:23:00,
2013-01-10 22:53:00,33.0,27.0,-100.00,ESE,122,7.0,12.0,79,0.00,,,0.00,0.000000,,2013-01-11 03:53:00,
2013-01-10 23:03:00,33.0,27.0,-100.00,ESE,122,7.0,12.0,79,0.00,,,0.00,0.000000,,2013-01-11 04:03:00,
2013-01-10 23:12:00,33.0,27.0,-100.00,ESE,122,7.0,12.0,79,0.00,,,0.00,0.000000,,2013-01-11 04:12:00,
2013-01-10 23:22:00,33.0,27.0,-100.00,ESE,122,7.0,12.0,79,0.00,,,0.00,0.000000,,2013-01-11 04:22:00,
2013-01-10 23:53:00,33.0,27.0,-100.00,ESE,114,7.0,10.0,78,0.00,,,0.00,0.000000,,2013-01-11 04:53:00,